createdAt,value
2017-06-17T00:00:12.457Z,1012.94
2017-06-17T00:01:21.785Z,1012.93
2017-06-17T00:02:30.745Z,1012.96
2017-06-17T00:03:39.705Z,1012.89
2017-06-17T00:04:48.654Z,1012.9
2017-06-17T00:05:57.612Z,1012.89
2017-06-17T00:07:06.566Z,1012.87
2017-06-17T00:08:15.610Z,1012.96
2017-06-17T00:09:24.559Z,1012.88
2017-06-17T00:10:33.516Z,1012.91
2017-06-17T00:11:42.471Z,1012.93
2017-06-17T00:12:51.477Z,1012.98
2017-06-17T00:14:00.431Z,1012.87
2017-06-17T00:15:09.473Z,1012.92
2017-06-17T00:16:18.427Z,1012.92
2017-06-17T00:17:27.383Z,1012.92
2017-06-17T00:18:36.392Z,1012.93
2017-06-17T00:19:45.345Z,1012.98
2017-06-17T00:20:54.298Z,1012.95
2017-06-17T00:22:03.254Z,1012.91
2017-06-17T00:23:12.204Z,1012.91
2017-06-17T00:24:21.154Z,1012.86
2017-06-17T00:25:30.199Z,1012.99
2017-06-17T00:26:39.155Z,1012.89
2017-06-17T00:27:48.198Z,1012.86
2017-06-17T00:28:57.244Z,1012.9
2017-06-17T00:30:06.201Z,1012.89
2017-06-17T00:31:15.155Z,1012.88
2017-06-17T00:32:24.107Z,1012.95
2017-06-17T00:33:33.067Z,1012.92
2017-06-17T00:34:42.018Z,1012.88
2017-06-17T00:35:50.973Z,1012.95
2017-06-17T00:36:59.929Z,1012.99
2017-06-17T00:38:08.891Z,1012.97
2017-06-17T00:39:17.844Z,1012.95
2017-06-17T00:40:26.793Z,1013.04
2017-06-17T00:41:35.797Z,1012.99
2017-06-17T00:42:44.753Z,1012.96
2017-06-17T00:43:53.710Z,1013
2017-06-17T00:45:02.664Z,1013.03
2017-06-17T00:46:11.619Z,1013.01
2017-06-17T00:47:20.627Z,1013.1
2017-06-17T00:48:29.577Z,1013.15
2017-06-17T00:49:38.622Z,1013.15
2017-06-17T00:50:47.588Z,1013.02
2017-06-17T00:51:56.548Z,1013.08
2017-06-17T00:53:05.505Z,1013.12
2017-06-17T00:54:14.456Z,1013.08
2017-06-17T00:55:23.408Z,1013.08
2017-06-17T00:56:32.534Z,1013.13
2017-06-17T00:57:41.489Z,1013.05
2017-06-17T00:58:50.496Z,1013.05
2017-06-17T00:59:59.453Z,1013.07
2017-06-17T01:01:08.407Z,1013.06
2017-06-17T01:02:17.358Z,1013.05
2017-06-17T01:03:26.312Z,1013.03
2017-06-17T01:04:35.313Z,1013.02
2017-06-17T01:05:44.263Z,1012.98
2017-06-17T01:06:53.219Z,1013.08
2017-06-17T01:08:02.176Z,1013.08
2017-06-17T01:09:11.134Z,1013.02
2017-06-17T01:10:20.085Z,1013.07
2017-06-17T01:11:29.044Z,1013.02
2017-06-17T01:12:37.999Z,1013.06
2017-06-17T01:13:46.955Z,1013.07
2017-06-17T01:14:55.915Z,1013.08
2017-06-17T01:16:04.871Z,1013.09
2017-06-17T01:17:13.824Z,1013.12
2017-06-17T01:18:22.785Z,1013.16
2017-06-17T01:19:31.736Z,1012.96
2017-06-17T01:20:40.697Z,1013.03
2017-06-17T01:21:49.973Z,1013.12
2017-06-17T01:22:58.927Z,1013.08
2017-06-17T01:24:07.884Z,1013.08
2017-06-17T01:25:16.839Z,1013.1
2017-06-17T01:26:25.791Z,1013.1
2017-06-17T01:27:34.751Z,1013.11
2017-06-17T01:28:43.707Z,1013.1
2017-06-17T01:29:52.749Z,1013.09
2017-06-17T01:31:01.788Z,1013.09
2017-06-17T01:32:10.744Z,1013.11
2017-06-17T01:33:19.750Z,1013.07
2017-06-17T01:34:28.710Z,1013.1
2017-06-17T01:35:37.665Z,1013.15
2017-06-17T01:36:46.617Z,1013.16
2017-06-17T01:37:55.568Z,1013.14
2017-06-17T01:39:04.577Z,1013.13
2017-06-17T01:40:13.529Z,1013.15
2017-06-17T01:41:22.480Z,1013.12
2017-06-17T01:42:31.523Z,1013.15
2017-06-17T01:43:40.566Z,1013.16
2017-06-17T01:44:49.595Z,1013.14
2017-06-17T01:45:58.557Z,1013.12
2017-06-17T01:47:07.517Z,1013.17
2017-06-17T01:48:16.473Z,1013.16
2017-06-17T01:49:25.424Z,1013.1
2017-06-17T01:50:34.379Z,1013.18
2017-06-17T01:51:43.351Z,1013.19
2017-06-17T01:52:52.307Z,1013.17
2017-06-17T01:54:01.263Z,1013.19
2017-06-17T01:55:10.215Z,1013.17
2017-06-17T01:56:19.168Z,1013.21
2017-06-17T01:57:28.127Z,1013.25
2017-06-17T01:58:37.176Z,1013.17
2017-06-17T01:59:46.132Z,1013.2
2017-06-17T02:00:55.087Z,1013.08
2017-06-17T02:02:04.048Z,1013.1
2017-06-17T02:03:13.004Z,1013.14
2017-06-17T02:04:21.957Z,1013.17
2017-06-17T02:05:30.915Z,1013.16
2017-06-17T02:06:40.197Z,1013.14
2017-06-17T02:07:49.155Z,1013.16
2017-06-17T02:08:58.108Z,1013.14
2017-06-17T02:10:07.057Z,1013.18
2017-06-17T02:11:16.008Z,1013.12
2017-06-17T02:12:24.967Z,1013.12
2017-06-17T02:13:33.968Z,1013.18
2017-06-17T02:14:42.925Z,1013.17
2017-06-17T02:15:51.883Z,1013.08
2017-06-17T02:17:00.838Z,1013.15
2017-06-17T02:18:09.795Z,1013.15
2017-06-17T02:19:18.770Z,1013.09
2017-06-17T02:20:27.813Z,1013.17
2017-06-17T02:21:36.778Z,1013.16
2017-06-17T02:22:45.735Z,1013.13
2017-06-17T02:23:54.689Z,1013.11
2017-06-17T02:25:03.693Z,1013.2
2017-06-17T02:26:12.647Z,1013.18
2017-06-17T02:27:21.602Z,1013.22
2017-06-17T02:28:30.888Z,1013.17
2017-06-17T02:29:39.841Z,1013.17
2017-06-17T02:30:48.934Z,1013.17
2017-06-17T02:31:57.908Z,1013.17
2017-06-17T02:33:06.872Z,1013.17
2017-06-17T02:34:15.828Z,1013.18
2017-06-17T02:35:24.792Z,1013.25
2017-06-17T02:36:33.801Z,1013.35
2017-06-17T02:37:42.753Z,1013.23
2017-06-17T02:38:51.707Z,1013.33
2017-06-17T02:40:00.664Z,1013.33
2017-06-17T02:41:09.794Z,1013.29
2017-06-17T02:42:18.889Z,1013.27
2017-06-17T02:43:27.847Z,1013.28
2017-06-17T02:44:36.807Z,1013.35
2017-06-17T02:45:45.761Z,1013.41
2017-06-17T02:46:54.719Z,1013.36
2017-06-17T02:48:03.677Z,1013.42
2017-06-17T02:49:12.630Z,1013.46
2017-06-17T02:50:21.583Z,1013.38
2017-06-17T02:51:30.541Z,1013.41
2017-06-17T02:52:39.500Z,1013.5
2017-06-17T02:53:48.505Z,1013.46
2017-06-17T02:54:57.458Z,1013.47
2017-06-17T02:56:06.499Z,1013.44
2017-06-17T02:57:15.449Z,1013.52
2017-06-17T02:58:24.400Z,1013.41
2017-06-17T02:59:33.380Z,1013.46
2017-06-17T03:00:42.334Z,1013.52
2017-06-17T03:01:51.290Z,1013.45
2017-06-17T03:03:00.244Z,1013.55
2017-06-17T03:04:09.198Z,1013.51
2017-06-17T03:05:18.142Z,1013.52
2017-06-17T03:06:27.099Z,1013.47
2017-06-17T03:07:36.087Z,1013.5
2017-06-17T03:08:45.041Z,1013.58
2017-06-17T03:09:54.324Z,1013.58
2017-06-17T03:11:03.332Z,1013.56
2017-06-17T03:12:12.284Z,1013.64
2017-06-17T03:13:21.417Z,1013.54
2017-06-17T03:14:30.372Z,1013.61
2017-06-17T03:15:39.333Z,1013.67
2017-06-17T03:16:48.340Z,1013.66
2017-06-17T03:17:57.293Z,1013.63
2017-06-17T03:19:06.247Z,1013.64
2017-06-17T03:20:15.197Z,1013.69
2017-06-17T03:21:24.152Z,1013.7
2017-06-17T03:22:33.103Z,1013.7
2017-06-17T03:23:42.055Z,1013.68
2017-06-17T03:24:51.013Z,1013.66
2017-06-17T03:25:59.964Z,1013.7
2017-06-17T03:27:08.915Z,1013.68
2017-06-17T03:28:17.870Z,1013.71
2017-06-17T03:29:26.820Z,1013.72
2017-06-17T03:30:35.775Z,1013.77
2017-06-17T03:31:44.729Z,1013.67
2017-06-17T03:32:53.708Z,1013.76
2017-06-17T03:34:03.133Z,1013.72
2017-06-17T03:35:12.088Z,1013.7
2017-06-17T03:36:21.045Z,1013.77
2017-06-17T03:37:36.266Z,1013.78
2017-06-17T03:38:45.225Z,1013.78
2017-06-17T03:39:54.235Z,1013.72
2017-06-17T03:41:03.188Z,1013.77
2017-06-17T03:42:12.154Z,1013.72
2017-06-17T03:43:21.109Z,1013.71
2017-06-17T03:44:30.064Z,1013.75
2017-06-17T03:45:39.016Z,1013.72
2017-06-17T03:46:47.970Z,1013.76
2017-06-17T03:47:56.924Z,1013.76
2017-06-17T03:49:05.884Z,1013.82
2017-06-17T03:50:14.834Z,1013.71
2017-06-17T03:51:23.864Z,1013.76
2017-06-17T03:52:32.824Z,1013.82
2017-06-17T03:53:41.785Z,1013.78
2017-06-17T03:54:50.740Z,1013.84
2017-06-17T03:55:59.694Z,1013.77
2017-06-17T03:57:08.653Z,1013.81
2017-06-17T03:58:17.609Z,1013.74
2017-06-17T03:59:26.563Z,1013.77
2017-06-17T04:00:35.523Z,1013.78
2017-06-17T04:01:44.483Z,1013.78
2017-06-17T04:02:53.488Z,1013.8
2017-06-17T04:04:02.448Z,1013.8
2017-06-17T04:05:11.404Z,1013.81
2017-06-17T04:06:20.354Z,1013.73
2017-06-17T04:07:29.642Z,1013.77
2017-06-17T04:08:38.640Z,1013.8
2017-06-17T04:09:47.595Z,1013.8
2017-06-17T04:10:56.549Z,1013.8
2017-06-17T04:12:05.501Z,1013.81
2017-06-17T04:13:14.457Z,1013.8
2017-06-17T04:14:23.458Z,1013.82
2017-06-17T04:15:32.410Z,1013.81
2017-06-17T04:16:41.370Z,1013.83
2017-06-17T04:17:50.327Z,1013.85
2017-06-17T04:18:59.277Z,1013.9
2017-06-17T04:20:08.229Z,1013.82
2017-06-17T04:21:17.181Z,1013.85
2017-06-17T04:22:26.130Z,1013.83
2017-06-17T04:23:35.082Z,1013.82
2017-06-17T04:24:44.036Z,1013.81
2017-06-17T04:25:53.043Z,1013.79
2017-06-17T04:27:01.998Z,1013.84
2017-06-17T04:28:10.954Z,1013.84
2017-06-17T04:29:19.910Z,1013.85
2017-06-17T04:30:28.859Z,1013.84
2017-06-17T04:31:37.869Z,1013.92
2017-06-17T04:32:46.825Z,1013.93
2017-06-17T04:33:55.779Z,1013.93
2017-06-17T04:35:04.734Z,1013.89
2017-06-17T04:36:13.694Z,1013.93
2017-06-17T04:37:22.704Z,1013.95
2017-06-17T04:38:31.750Z,1013.99
2017-06-17T04:39:40.707Z,1013.97
2017-06-17T04:40:49.664Z,1013.96
2017-06-17T04:41:58.618Z,1013.96
2017-06-17T04:43:07.625Z,1013.92
2017-06-17T04:44:16.579Z,1013.97
2017-06-17T04:45:25.535Z,1013.95
2017-06-17T04:46:34.488Z,1013.95
2017-06-17T04:47:43.438Z,1013.95
2017-06-17T04:48:52.394Z,1013.94
2017-06-17T04:50:01.348Z,1013.97
2017-06-17T04:51:10.307Z,1013.95
2017-06-17T04:52:19.262Z,1013.96
2017-06-17T04:53:28.223Z,1013.9
2017-06-17T04:54:37.182Z,1013.95
2017-06-17T04:55:46.139Z,1013.94
2017-06-17T04:56:55.095Z,1013.9
2017-06-17T04:58:04.054Z,1013.96
2017-06-17T04:59:13.010Z,1013.91
2017-06-17T05:00:22.015Z,1013.92
2017-06-17T05:01:30.982Z,1013.95
2017-06-17T05:02:39.935Z,1013.94
2017-06-17T05:03:48.894Z,1013.88
2017-06-17T05:04:57.848Z,1013.94
2017-06-17T05:06:06.851Z,1013.9
2017-06-17T05:07:15.807Z,1013.95
2017-06-17T05:08:24.796Z,1013.88
2017-06-17T05:09:33.757Z,1013.9
2017-06-17T05:10:42.710Z,1013.96
2017-06-17T05:11:51.717Z,1013.95
2017-06-17T05:13:00.669Z,1013.9
2017-06-17T05:14:09.633Z,1013.93
2017-06-17T05:15:18.908Z,1013.95
2017-06-17T05:16:28.314Z,1013.92
2017-06-17T05:17:37.318Z,1013.94
2017-06-17T05:18:46.270Z,1013.92
2017-06-17T05:19:55.223Z,1013.94
2017-06-17T05:21:04.182Z,1013.98
2017-06-17T05:22:13.137Z,1013.97
2017-06-17T05:23:22.097Z,1013.89
2017-06-17T05:24:31.053Z,1013.89
2017-06-17T05:25:40.418Z,1013.92
2017-06-17T05:26:49.378Z,1013.93
2017-06-17T05:27:58.330Z,1013.94
2017-06-17T05:29:07.280Z,1014.03
2017-06-17T05:30:16.233Z,1013.93
2017-06-17T05:31:25.272Z,1014.02
2017-06-17T05:32:34.307Z,1014.03
2017-06-17T05:33:43.265Z,1014.05
2017-06-17T05:34:52.219Z,1014.11
2017-06-17T05:36:01.175Z,1014.08
2017-06-17T05:37:10.130Z,1014.08
2017-06-17T05:38:19.088Z,1014.06
2017-06-17T05:39:28.048Z,1014.1
2017-06-17T05:40:37.050Z,1014.18
2017-06-17T05:41:46.004Z,1014.17
2017-06-17T05:42:54.956Z,1014.2
2017-06-17T05:44:03.907Z,1014.19
2017-06-17T05:45:12.862Z,1014.21
2017-06-17T05:46:21.869Z,1014.28
2017-06-17T05:47:30.827Z,1014.22
2017-06-17T05:48:39.785Z,1014.3
2017-06-17T05:49:48.738Z,1014.33
2017-06-17T05:50:57.691Z,1014.27
2017-06-17T05:52:06.645Z,1014.3
2017-06-17T05:53:15.608Z,1014.29
2017-06-17T05:54:24.593Z,1014.19
2017-06-17T05:55:33.545Z,1014.25
2017-06-17T05:56:42.509Z,1014.25
2017-06-17T05:57:51.471Z,1014.31
2017-06-17T05:59:00.760Z,1014.32
2017-06-17T06:00:09.716Z,1014.3
2017-06-17T06:01:18.669Z,1014.31
2017-06-17T06:02:27.625Z,1014.31
2017-06-17T06:03:36.577Z,1014.29
2017-06-17T06:04:45.540Z,1014.3
2017-06-17T06:05:54.496Z,1014.31
2017-06-17T06:07:03.449Z,1014.27
2017-06-17T06:08:12.731Z,1014.28
2017-06-17T06:09:21.738Z,1014.3
2017-06-17T06:10:30.694Z,1014.26
2017-06-17T06:11:39.654Z,1014.25
2017-06-17T06:12:48.641Z,1014.27
2017-06-17T06:13:57.600Z,1014.29
2017-06-17T06:15:06.556Z,1014.29
2017-06-17T06:16:15.524Z,1014.29
2017-06-17T06:17:24.475Z,1014.22
2017-06-17T06:18:33.461Z,1014.27
2017-06-17T06:19:42.415Z,1014.21
2017-06-17T06:20:51.426Z,1014.23
2017-06-17T06:22:00.389Z,1014.24
2017-06-17T06:23:09.347Z,1014.22
2017-06-17T06:24:18.300Z,1014.27
2017-06-17T06:25:27.250Z,1014.25
2017-06-17T06:26:36.204Z,1014.25
2017-06-17T06:27:45.244Z,1014.26
2017-06-17T06:28:54.200Z,1014.22
2017-06-17T06:30:03.155Z,1014.23
2017-06-17T06:31:12.283Z,1014.24
2017-06-17T06:32:21.288Z,1014.26
2017-06-17T06:33:30.239Z,1014.29
2017-06-17T06:34:39.196Z,1014.31
2017-06-17T06:35:48.151Z,1014.37
2017-06-17T06:36:57.104Z,1014.29
2017-06-17T06:38:06.110Z,1014.33
2017-06-17T06:39:15.406Z,1014.36
2017-06-17T06:40:24.362Z,1014.36
2017-06-17T06:41:33.317Z,1014.37
2017-06-17T06:42:42.274Z,1014.36
2017-06-17T06:43:51.282Z,1014.33
2017-06-17T06:45:00.239Z,1014.36
2017-06-17T06:46:09.196Z,1014.35
2017-06-17T06:47:18.152Z,1014.34
2017-06-17T06:48:27.105Z,1014.37
2017-06-17T06:49:36.112Z,1014.37
2017-06-17T06:50:45.065Z,1014.42
2017-06-17T06:51:54.108Z,1014.43
2017-06-17T06:53:03.063Z,1014.4
2017-06-17T06:54:12.019Z,1014.44
2017-06-17T06:55:21.041Z,1014.4
2017-06-17T06:56:30.320Z,1014.44
2017-06-17T06:57:39.275Z,1014.41
2017-06-17T06:58:48.233Z,1014.42
2017-06-17T06:59:57.189Z,1014.46
2017-06-17T07:01:06.246Z,1014.39
2017-06-17T07:02:15.203Z,1014.45
2017-06-17T07:03:24.154Z,1014.38
2017-06-17T07:04:33.112Z,1014.45
2017-06-17T07:05:42.074Z,1014.44
2017-06-17T07:06:51.028Z,1014.48
2017-06-17T07:08:00.159Z,1014.48
2017-06-17T07:09:09.116Z,1014.44
2017-06-17T07:10:18.070Z,1014.46
2017-06-17T07:11:27.021Z,1014.47
2017-06-17T07:12:35.970Z,1014.44
2017-06-17T07:13:44.923Z,1014.52
2017-06-17T07:14:53.880Z,1014.47
2017-06-17T07:16:02.832Z,1014.53
2017-06-17T07:17:11.785Z,1014.49
2017-06-17T07:18:20.789Z,1014.5
2017-06-17T07:19:29.742Z,1014.58
2017-06-17T07:20:38.695Z,1014.55
2017-06-17T07:21:47.648Z,1014.56
2017-06-17T07:22:56.602Z,1014.52
2017-06-17T07:24:05.610Z,1014.47
2017-06-17T07:25:14.890Z,1014.49
2017-06-17T07:26:24.172Z,1014.5
2017-06-17T07:27:33.131Z,1014.54
2017-06-17T07:28:42.173Z,1014.58
2017-06-17T07:29:51.178Z,1014.54
2017-06-17T07:31:00.129Z,1014.58
2017-06-17T07:32:09.175Z,1014.59
2017-06-17T07:33:18.133Z,1014.71
2017-06-17T07:34:27.414Z,1014.61
2017-06-17T07:35:36.443Z,1014.67
2017-06-17T07:36:45.406Z,1014.64
2017-06-17T07:37:54.399Z,1014.72
2017-06-17T07:39:03.365Z,1014.67
2017-06-17T07:40:12.653Z,1014.69
2017-06-17T07:41:21.950Z,1014.74
2017-06-17T07:42:30.907Z,1014.74
2017-06-17T07:43:39.860Z,1014.74
2017-06-17T07:44:49.139Z,1014.73
2017-06-17T07:45:58.093Z,1014.78
2017-06-17T07:47:07.106Z,1014.78
2017-06-17T07:48:16.065Z,1014.73
2017-06-17T07:49:25.111Z,1014.84
2017-06-17T07:50:34.062Z,1014.8
2017-06-17T07:51:43.030Z,1014.79
2017-06-17T07:52:52.035Z,1014.77
2017-06-17T07:54:00.992Z,1014.78
2017-06-17T07:55:09.948Z,1014.74
2017-06-17T07:56:18.904Z,1014.75
2017-06-17T07:57:27.864Z,1014.66
2017-06-17T07:58:36.870Z,1014.79
2017-06-17T07:59:46.154Z,1014.7
2017-06-17T08:00:55.104Z,1014.76
2017-06-17T08:02:04.056Z,1014.76
2017-06-17T08:03:13.011Z,1014.73
2017-06-17T08:04:22.014Z,1014.73
2017-06-17T08:05:30.969Z,1014.73
2017-06-17T08:06:39.924Z,1014.74
2017-06-17T08:07:48.881Z,1014.8
2017-06-17T08:08:57.840Z,1014.84
2017-06-17T08:10:06.846Z,1014.85
2017-06-17T08:11:15.803Z,1014.8
2017-06-17T08:12:24.761Z,1014.78
2017-06-17T08:13:33.715Z,1014.83
2017-06-17T08:14:42.670Z,1014.85
2017-06-17T08:15:51.681Z,1014.91
2017-06-17T08:17:00.637Z,1014.84
2017-06-17T08:18:09.591Z,1014.84
2017-06-17T08:19:18.547Z,1014.9
2017-06-17T08:20:27.507Z,1014.94
2017-06-17T08:21:36.526Z,1014.87
2017-06-17T08:22:45.484Z,1014.85
2017-06-17T08:23:54.446Z,1014.95
2017-06-17T08:25:03.406Z,1014.84
2017-06-17T08:26:12.451Z,1014.88
2017-06-17T08:27:21.832Z,1014.85
2017-06-17T08:28:30.790Z,1014.9
2017-06-17T08:29:39.753Z,1014.92
2017-06-17T08:30:48.709Z,1014.94
2017-06-17T08:31:57.664Z,1014.93
2017-06-17T08:33:06.671Z,1014.95
2017-06-17T08:34:15.626Z,1014.99
2017-06-17T08:35:24.578Z,1015
2017-06-17T08:36:33.531Z,1014.88
2017-06-17T08:37:42.572Z,1014.91
2017-06-17T08:38:51.579Z,1014.92
2017-06-17T08:40:00.534Z,1014.94
2017-06-17T08:41:09.498Z,1014.96
2017-06-17T08:42:18.454Z,1014.89
2017-06-17T08:43:27.413Z,1014.96
2017-06-17T08:44:36.420Z,1014.95
2017-06-17T08:45:45.373Z,1014.96
2017-06-17T08:46:54.414Z,1014.94
2017-06-17T08:48:03.369Z,1015
2017-06-17T08:49:12.324Z,1014.9
2017-06-17T08:50:21.606Z,1014.92
2017-06-17T08:51:30.564Z,1014.89
2017-06-17T08:52:39.524Z,1014.94
2017-06-17T08:53:48.478Z,1014.9
2017-06-17T08:54:57.757Z,1014.98
2017-06-17T08:56:06.762Z,1014.99
2017-06-17T08:57:15.717Z,1014.98
2017-06-17T08:58:24.673Z,1014.97
2017-06-17T08:59:33.629Z,1014.98
2017-06-17T09:00:42.583Z,1015.09
2017-06-17T09:01:51.595Z,1015.02
2017-06-17T09:03:00.637Z,1015.17
2017-06-17T09:04:09.649Z,1015.14
2017-06-17T09:05:18.612Z,1015.21
2017-06-17T09:06:27.565Z,1015.17
2017-06-17T09:07:36.526Z,1015.25
2017-06-17T09:08:45.484Z,1015.2
2017-06-17T09:09:54.443Z,1015.26
2017-06-17T09:11:03.400Z,1015.26
2017-06-17T09:12:12.356Z,1015.22
2017-06-17T09:13:21.704Z,1015.15
2017-06-17T09:14:30.670Z,1015.3
2017-06-17T09:15:39.628Z,1015.23
2017-06-17T09:16:48.611Z,1015.25
2017-06-17T09:17:57.569Z,1015.24
2017-06-17T09:19:06.578Z,1015.25
2017-06-17T09:20:15.536Z,1015.22
2017-06-17T09:21:24.817Z,1015.23
2017-06-17T09:22:33.778Z,1015.22
2017-06-17T09:23:42.822Z,1015.25
2017-06-17T09:24:51.778Z,1015.19
2017-06-17T09:26:00.732Z,1015.25
2017-06-17T09:27:09.692Z,1015.26
2017-06-17T09:28:18.650Z,1015.31
2017-06-17T09:29:27.606Z,1015.26
2017-06-17T09:30:36.616Z,1015.33
2017-06-17T09:31:45.574Z,1015.25
2017-06-17T09:32:54.619Z,1015.26
2017-06-17T09:34:03.575Z,1015.21
2017-06-17T09:35:12.527Z,1015.2
2017-06-17T09:36:21.532Z,1015.32
2017-06-17T09:37:30.484Z,1015.26
2017-06-17T09:38:39.440Z,1015.31
2017-06-17T09:39:48.482Z,1015.32
2017-06-17T09:40:57.438Z,1015.27
2017-06-17T09:42:06.444Z,1015.28
2017-06-17T09:43:15.405Z,1015.31
2017-06-17T09:44:24.361Z,1015.24
2017-06-17T09:45:33.320Z,1015.23
2017-06-17T09:46:42.277Z,1015.24
2017-06-17T09:47:51.374Z,1015.16
2017-06-17T09:49:00.329Z,1015.2
2017-06-17T09:50:09.283Z,1015.18
2017-06-17T09:51:18.248Z,1015.15
2017-06-17T09:52:27.206Z,1015.16
2017-06-17T09:53:36.163Z,1015.18
2017-06-17T09:54:45.234Z,1015.19
2017-06-17T09:55:54.191Z,1015.11
2017-06-17T09:57:03.149Z,1015.17
2017-06-17T09:58:12.109Z,1015.2
2017-06-17T09:59:21.112Z,1015.16
2017-06-17T10:00:30.063Z,1015.29
2017-06-17T10:01:39.014Z,1015.21
2017-06-17T10:02:47.970Z,1015.23
2017-06-17T10:03:56.926Z,1015.25
2017-06-17T10:05:05.934Z,1015.32
2017-06-17T10:06:14.985Z,1015.19
2017-06-17T10:07:23.941Z,1015.19
2017-06-17T10:08:32.903Z,1015.14
2017-06-17T10:09:41.856Z,1015.18
2017-06-17T10:10:50.819Z,1015.29
2017-06-17T10:11:59.780Z,1015.26
2017-06-17T10:13:08.744Z,1015.09
2017-06-17T10:14:18.046Z,1015.12
2017-06-17T10:15:27.096Z,1015.03
2017-06-17T10:16:36.145Z,1015.21
2017-06-17T10:17:45.101Z,1015.22
2017-06-17T10:18:54.142Z,1015.09
2017-06-17T10:20:03.187Z,1015.03
2017-06-17T10:21:12.147Z,1015.1
2017-06-17T10:22:21.155Z,1015.03
2017-06-17T10:23:30.115Z,1015.07
2017-06-17T10:24:39.078Z,1015.09
2017-06-17T10:25:48.353Z,1015.1
2017-06-17T10:26:57.309Z,1015.08
2017-06-17T10:28:06.316Z,1015.06
2017-06-17T10:29:15.275Z,1015.01
2017-06-17T10:30:24.240Z,1015.08
2017-06-17T10:31:33.195Z,1015.17
2017-06-17T10:32:42.155Z,1015.12
2017-06-17T10:33:51.162Z,1015.26
2017-06-17T10:35:00.122Z,1015.26
2017-06-17T10:36:09.081Z,1015.25
2017-06-17T10:37:18.039Z,1015.29
2017-06-17T10:38:26.996Z,1015.3
2017-06-17T10:39:36.002Z,1015.28
2017-06-17T10:40:44.962Z,1015.29
2017-06-17T10:41:53.922Z,1015.28
2017-06-17T10:43:02.887Z,1015.34
2017-06-17T10:44:11.847Z,1015.33
2017-06-17T10:45:20.854Z,1015.33
2017-06-17T10:46:29.829Z,1015.32
2017-06-17T10:47:38.794Z,1015.3
2017-06-17T10:48:47.770Z,1015.32
2017-06-17T10:49:56.828Z,1015.5
2017-06-17T10:51:05.874Z,1015.47
2017-06-17T10:52:14.837Z,1015.39
2017-06-17T10:53:23.794Z,1015.4
2017-06-17T10:54:32.749Z,1015.44
2017-06-17T10:55:41.708Z,1015.39
2017-06-17T10:56:50.801Z,1015.41
2017-06-17T10:57:59.762Z,1015.4
2017-06-17T10:59:08.724Z,1015.43
2017-06-17T11:00:18.020Z,1015.45
2017-06-17T11:01:27.302Z,1015.41
2017-06-17T11:02:36.311Z,1015.39
2017-06-17T11:03:45.354Z,1015.42
2017-06-17T11:04:54.313Z,1015.41
2017-06-17T11:06:03.269Z,1015.43
2017-06-17T11:07:12.242Z,1015.54
2017-06-17T11:08:21.250Z,1015.52
2017-06-17T11:09:30.289Z,1015.53
2017-06-17T11:10:39.420Z,1015.63
2017-06-17T11:11:48.382Z,1015.6
2017-06-17T11:12:57.347Z,1015.56
2017-06-17T11:14:06.401Z,1015.51
2017-06-17T11:15:15.394Z,1015.49
2017-06-17T11:16:24.356Z,1015.57
2017-06-17T11:17:33.318Z,1015.52
2017-06-17T11:18:42.276Z,1015.53
2017-06-17T11:19:51.286Z,1015.49
2017-06-17T11:21:00.248Z,1015.48
2017-06-17T11:22:09.208Z,1015.52
2017-06-17T11:23:18.167Z,1015.5
2017-06-17T11:24:27.128Z,1015.39
2017-06-17T11:25:36.138Z,1015.33
2017-06-17T11:26:45.102Z,1015.4
2017-06-17T11:27:54.070Z,1015.36
2017-06-17T11:29:03.031Z,1015.47
2017-06-17T11:30:11.994Z,1015.34
2017-06-17T11:31:20.953Z,1015.48
2017-06-17T11:32:29.906Z,1015.46
2017-06-17T11:33:38.866Z,1015.48
2017-06-17T11:34:47.824Z,1015.46
2017-06-17T11:35:56.788Z,1015.48
2017-06-17T11:37:05.810Z,1015.49
2017-06-17T11:38:15.091Z,1015.49
2017-06-17T11:39:24.046Z,1015.5
2017-06-17T11:40:32.998Z,1015.54
2017-06-17T11:41:41.955Z,1015.57
2017-06-17T11:42:50.968Z,1015.47
2017-06-17T11:43:59.926Z,1015.47
2017-06-17T11:45:08.894Z,1015.47
2017-06-17T11:46:17.859Z,1015.49
2017-06-17T11:47:26.904Z,1015.47
2017-06-17T11:48:35.916Z,1015.55
2017-06-17T11:49:44.879Z,1015.52
2017-06-17T11:50:53.836Z,1015.38
2017-06-17T11:52:02.803Z,1015.58
2017-06-17T11:53:11.771Z,1015.61
2017-06-17T11:54:20.783Z,1015.57
2017-06-17T11:55:29.747Z,1015.55
2017-06-17T11:56:38.705Z,1015.54
2017-06-17T11:57:47.667Z,1015.53
2017-06-17T11:58:56.625Z,1015.54
2017-06-17T12:00:05.724Z,1015.51
2017-06-17T12:01:14.773Z,1015.53
2017-06-17T12:02:23.734Z,1015.52
2017-06-17T12:03:32.693Z,1015.52
2017-06-17T12:04:41.649Z,1015.51
2017-06-17T12:05:50.659Z,1015.46
2017-06-17T12:06:59.617Z,1015.46
2017-06-17T12:08:08.600Z,1015.42
2017-06-17T12:09:17.562Z,1015.4
2017-06-17T12:10:26.546Z,1015.49
2017-06-17T12:11:35.557Z,1015.47
2017-06-17T12:12:44.515Z,1015.43
2017-06-17T12:13:53.479Z,1015.53
2017-06-17T12:15:02.439Z,1015.55
2017-06-17T12:16:11.401Z,1015.42
2017-06-17T12:17:20.600Z,1015.48
2017-06-17T12:18:29.565Z,1015.43
2017-06-17T12:19:38.535Z,1015.49
2017-06-17T12:20:47.547Z,1015.51
2017-06-17T12:21:56.504Z,1015.52
2017-06-17T12:23:05.461Z,1015.5
2017-06-17T12:24:14.683Z,1015.46
2017-06-17T12:25:23.684Z,1015.57
2017-06-17T12:26:32.796Z,1015.48
2017-06-17T12:27:41.757Z,1015.61
2017-06-17T12:28:50.761Z,1015.55
2017-06-17T12:29:59.721Z,1015.58
2017-06-17T12:31:08.685Z,1015.58
2017-06-17T12:32:18.085Z,1015.48
2017-06-17T12:33:27.340Z,1015.51
2017-06-17T12:34:36.901Z,1015.5
2017-06-17T12:35:46.062Z,1015.6
2017-06-17T12:36:55.266Z,1015.6
2017-06-17T12:38:04.277Z,1015.57
2017-06-17T12:39:13.249Z,1015.55
2017-06-17T12:40:22.589Z,1015.59
2017-06-17T12:41:31.905Z,1015.39
2017-06-17T12:42:40.950Z,1015.47
2017-06-17T12:43:49.907Z,1015.4
2017-06-17T12:44:58.866Z,1015.33
2017-06-17T12:46:07.825Z,1015.42
2017-06-17T12:47:16.784Z,1015.43
2017-06-17T12:48:25.742Z,1015.41
2017-06-17T12:49:34.702Z,1015.43
2017-06-17T12:50:43.664Z,1015.48
2017-06-17T12:51:52.622Z,1015.43
2017-06-17T12:53:01.590Z,1015.48
2017-06-17T12:54:10.553Z,1015.46
2017-06-17T12:55:19.517Z,1015.51
2017-06-17T12:56:28.508Z,1015.46
2017-06-17T12:57:37.520Z,1015.49
2017-06-17T12:58:46.481Z,1015.46
2017-06-17T12:59:55.530Z,1015.53
2017-06-17T13:01:04.489Z,1015.5
2017-06-17T13:02:13.464Z,1015.51
2017-06-17T13:03:22.493Z,1015.48
2017-06-17T13:04:31.457Z,1015.5
2017-06-17T13:05:40.413Z,1015.44
2017-06-17T13:06:49.377Z,1015.54
2017-06-17T13:07:58.343Z,1015.6
2017-06-17T13:09:07.358Z,1015.61
2017-06-17T13:10:16.318Z,1015.51
2017-06-17T13:11:25.275Z,1015.52
2017-06-17T13:12:34.237Z,1015.51
2017-06-17T13:13:43.199Z,1015.49
2017-06-17T13:14:52.247Z,1015.57
2017-06-17T13:16:01.295Z,1015.68
2017-06-17T13:17:10.344Z,1015.65
2017-06-17T13:18:19.305Z,1015.63
2017-06-17T13:19:28.269Z,1015.68
2017-06-17T13:20:37.277Z,1015.64
2017-06-17T13:21:46.233Z,1015.67
2017-06-17T13:22:55.200Z,1015.57
2017-06-17T13:24:04.164Z,1015.59
2017-06-17T13:25:13.122Z,1015.59
2017-06-17T13:26:22.081Z,1015.63
2017-06-17T13:27:31.038Z,1015.61
2017-06-17T13:28:39.998Z,1015.66
2017-06-17T13:29:48.964Z,1015.73
2017-06-17T13:30:57.924Z,1015.68
2017-06-17T13:32:06.934Z,1015.68
2017-06-17T13:33:15.893Z,1015.72
2017-06-17T13:34:24.852Z,1015.67
2017-06-17T13:35:33.810Z,1015.75
2017-06-17T13:36:42.772Z,1015.72
2017-06-17T13:37:51.730Z,1015.69
2017-06-17T13:39:00.688Z,1015.73
2017-06-17T13:40:09.733Z,1015.79
2017-06-17T13:41:18.698Z,1015.84
2017-06-17T13:42:27.653Z,1015.83
2017-06-17T13:43:36.615Z,1015.77
2017-06-17T13:44:45.574Z,1015.78
2017-06-17T13:45:54.962Z,1015.79
2017-06-17T13:47:03.924Z,1015.8
2017-06-17T13:48:12.888Z,1015.85
2017-06-17T13:49:21.911Z,1015.93
2017-06-17T13:50:30.874Z,1015.87
2017-06-17T13:51:39.832Z,1015.9
2017-06-17T13:52:48.798Z,1015.84
2017-06-17T13:53:57.762Z,1015.84
2017-06-17T13:55:06.811Z,1015.83
2017-06-17T13:56:15.768Z,1015.88
2017-06-17T13:57:24.726Z,1015.85